sensor_id;sensor_type;location;lat;lon;timestamp;P1;durP1;ratioP1;P2;durP2;ratioP2
8857;SDS011;4465;50.904;4.696;2022-09-01T00:01:21;14.10;;;4.68;;
8857;SDS011;4465;50.904;4.696;2022-09-01T00:03:51;8.23;;;3.97;;
8857;SDS011;4465;50.904;4.696;2022-09-01T00:06:20;11.65;;;4.13;;
8857;SDS011;4465;50.904;4.696;2022-09-01T00:08:48;9.38;;;4.03;;
8857;SDS011;4465;50.904;4.696;2022-09-01T00:11:15;12.68;;;4.78;;
8857;SDS011;4465;50.904;4.696;2022-09-01T00:13:42;10.95;;;4.43;;
8857;SDS011;4465;50.904;4.696;2022-09-01T00:16:08;9.13;;;4.72;;
8857;SDS011;4465;50.904;4.696;2022-09-01T00:18:42;12.13;;;4.20;;
8857;SDS011;4465;50.904;4.696;2022-09-01T00:21:20;9.07;;;4.05;;
8857;SDS011;4465;50.904;4.696;2022-09-01T00:23:51;9.43;;;4.05;;
8857;SDS011;4465;50.904;4.696;2022-09-01T00:26:20;9.85;;;4.18;;
8857;SDS011;4465;50.904;4.696;2022-09-01T00:28:46;8.93;;;3.97;;
8857;SDS011;4465;50.904;4.696;2022-09-01T00:31:13;9.05;;;4.20;;
8857;SDS011;4465;50.904;4.696;2022-09-01T00:33:39;10.43;;;4.45;;
8857;SDS011;4465;50.904;4.696;2022-09-01T00:36:06;9.50;;;4.00;;
8857;SDS011;4465;50.904;4.696;2022-09-01T00:38:32;11.02;;;4.35;;
8857;SDS011;4465;50.904;4.696;2022-09-01T00:40:59;8.65;;;4.65;;
8857;SDS011;4465;50.904;4.696;2022-09-01T00:46:06;7.85;;;4.20;;
8857;SDS011;4465;50.904;4.696;2022-09-01T00:48:33;8.77;;;4.50;;
8857;SDS011;4465;50.904;4.696;2022-09-01T00:51:00;10.55;;;4.28;;
8857;SDS011;4465;50.904;4.696;2022-09-01T00:53:28;10.00;;;4.07;;
8857;SDS011;4465;50.904;4.696;2022-09-01T00:55:54;9.82;;;4.32;;
8857;SDS011;4465;50.904;4.696;2022-09-01T00:58:20;10.85;;;4.97;;
8857;SDS011;4465;50.904;4.696;2022-09-01T01:00:49;10.05;;;4.85;;
8857;SDS011;4465;50.904;4.696;2022-09-01T01:03:18;10.82;;;5.13;;
8857;SDS011;4465;50.904;4.696;2022-09-01T01:05:48;13.02;;;4.78;;
8857;SDS011;4465;50.904;4.696;2022-09-01T01:08:27;12.15;;;5.30;;
8857;SDS011;4465;50.904;4.696;2022-09-01T01:11:03;12.02;;;5.45;;
8857;SDS011;4465;50.904;4.696;2022-09-01T01:16:24;10.52;;;5.25;;
8857;SDS011;4465;50.904;4.696;2022-09-01T01:18:52;10.63;;;5.28;;
8857;SDS011;4465;50.904;4.696;2022-09-01T01:21:19;11.98;;;5.13;;
8857;SDS011;4465;50.904;4.696;2022-09-01T01:26:54;13.80;;;6.07;;
8857;SDS011;4465;50.904;4.696;2022-09-01T01:29:25;13.98;;;6.05;;
8857;SDS011;4465;50.904;4.696;2022-09-01T01:31:56;13.48;;;5.75;;
8857;SDS011;4465;50.904;4.696;2022-09-01T01:34:22;15.77;;;5.80;;
8857;SDS011;4465;50.904;4.696;2022-09-01T01:36:49;13.70;;;6.13;;
8857;SDS011;4465;50.904;4.696;2022-09-01T01:39:19;17.60;;;5.60;;
8857;SDS011;4465;50.904;4.696;2022-09-01T01:41:50;11.88;;;6.00;;
8857;SDS011;4465;50.904;4.696;2022-09-01T01:44:20;17.20;;;6.68;;
8857;SDS011;4465;50.904;4.696;2022-09-01T01:46:52;16.52;;;6.07;;
8857;SDS011;4465;50.904;4.696;2022-09-01T01:51:50;17.65;;;6.60;;
8857;SDS011;4465;50.904;4.696;2022-09-01T01:54:20;15.07;;;5.95;;
8857;SDS011;4465;50.904;4.696;2022-09-01T01:56:50;18.23;;;6.18;;
8857;SDS011;4465;50.904;4.696;2022-09-01T01:59:16;13.98;;;6.45;;
8857;SDS011;4465;50.904;4.696;2022-09-01T02:01:44;17.70;;;6.95;;
8857;SDS011;4465;50.904;4.696;2022-09-01T02:04:13;14.35;;;6.28;;
8857;SDS011;4465;50.904;4.696;2022-09-01T02:06:41;13.60;;;6.35;;
8857;SDS011;4465;50.904;4.696;2022-09-01T02:09:10;16.23;;;7.28;;
8857;SDS011;4465;50.904;4.696;2022-09-01T02:11:38;16.33;;;7.10;;
8857;SDS011;4465;50.904;4.696;2022-09-01T02:14:05;15.80;;;6.80;;
8857;SDS011;4465;50.904;4.696;2022-09-01T02:16:33;16.25;;;6.35;;
8857;SDS011;4465;50.904;4.696;2022-09-01T02:19:03;15.32;;;7.00;;
8857;SDS011;4465;50.904;4.696;2022-09-01T02:21:31;15.95;;;7.15;;
8857;SDS011;4465;50.904;4.696;2022-09-01T02:23:59;17.63;;;6.78;;
8857;SDS011;4465;50.904;4.696;2022-09-01T02:26:30;23.00;;;8.82;;
8857;SDS011;4465;50.904;4.696;2022-09-01T02:29:00;17.00;;;8.23;;
8857;SDS011;4465;50.904;4.696;2022-09-01T02:31:29;22.48;;;8.10;;
8857;SDS011;4465;50.904;4.696;2022-09-01T02:33:57;16.75;;;7.85;;
8857;SDS011;4465;50.904;4.696;2022-09-01T02:36:25;17.05;;;8.43;;
8857;SDS011;4465;50.904;4.696;2022-09-01T02:38:52;18.58;;;8.15;;
8857;SDS011;4465;50.904;4.696;2022-09-01T02:41:24;17.75;;;8.50;;
8857;SDS011;4465;50.904;4.696;2022-09-01T02:43:58;20.38;;;8.55;;
8857;SDS011;4465;50.904;4.696;2022-09-01T02:46:26;22.08;;;8.07;;
8857;SDS011;4465;50.904;4.696;2022-09-01T02:48:53;18.52;;;7.63;;
8857;SDS011;4465;50.904;4.696;2022-09-01T02:51:23;23.42;;;8.75;;
8857;SDS011;4465;50.904;4.696;2022-09-01T02:53:55;19.95;;;9.00;;
8857;SDS011;4465;50.904;4.696;2022-09-01T02:56:23;22.10;;;8.73;;
8857;SDS011;4465;50.904;4.696;2022-09-01T02:58:52;18.50;;;8.70;;
8857;SDS011;4465;50.904;4.696;2022-09-01T03:01:26;22.02;;;8.20;;
8857;SDS011;4465;50.904;4.696;2022-09-01T03:03:55;19.85;;;8.82;;
8857;SDS011;4465;50.904;4.696;2022-09-01T03:06:23;22.95;;;8.32;;
8857;SDS011;4465;50.904;4.696;2022-09-01T03:08:52;21.33;;;9.25;;
8857;SDS011;4465;50.904;4.696;2022-09-01T03:11:20;28.88;;;9.95;;
8857;SDS011;4465;50.904;4.696;2022-09-01T03:13:48;22.52;;;8.82;;
8857;SDS011;4465;50.904;4.696;2022-09-01T03:16:14;17.85;;;8.63;;
8857;SDS011;4465;50.904;4.696;2022-09-01T03:18:40;17.40;;;8.90;;
8857;SDS011;4465;50.904;4.696;2022-09-01T03:21:11;23.77;;;8.82;;
8857;SDS011;4465;50.904;4.696;2022-09-01T03:23:42;20.13;;;8.68;;
8857;SDS011;4465;50.904;4.696;2022-09-01T03:26:16;20.33;;;9.02;;
8857;SDS011;4465;50.904;4.696;2022-09-01T03:28:47;19.42;;;9.65;;
8857;SDS011;4465;50.904;4.696;2022-09-01T03:31:15;22.30;;;8.95;;
8857;SDS011;4465;50.904;4.696;2022-09-01T03:33:42;23.00;;;9.65;;
8857;SDS011;4465;50.904;4.696;2022-09-01T03:36:08;19.92;;;9.45;;
8857;SDS011;4465;50.904;4.696;2022-09-01T03:38:47;22.83;;;9.88;;
8857;SDS011;4465;50.904;4.696;2022-09-01T03:41:16;22.05;;;10.40;;
8857;SDS011;4465;50.904;4.696;2022-09-01T03:43:46;23.50;;;9.65;;
8857;SDS011;4465;50.904;4.696;2022-09-01T03:46:13;30.52;;;10.18;;
8857;SDS011;4465;50.904;4.696;2022-09-01T03:48:46;25.88;;;9.80;;
8857;SDS011;4465;50.904;4.696;2022-09-01T03:51:17;17.58;;;8.88;;
8857;SDS011;4465;50.904;4.696;2022-09-01T03:53:47;27.40;;;9.85;;
8857;SDS011;4465;50.904;4.696;2022-09-01T03:56:16;22.98;;;9.32;;
8857;SDS011;4465;50.904;4.696;2022-09-01T03:58:42;21.50;;;9.73;;
8857;SDS011;4465;50.904;4.696;2022-09-01T04:01:11;20.88;;;9.20;;
8857;SDS011;4465;50.904;4.696;2022-09-01T04:03:38;24.83;;;9.38;;
8857;SDS011;4465;50.904;4.696;2022-09-01T04:06:08;24.55;;;9.13;;
8857;SDS011;4465;50.904;4.696;2022-09-01T04:08:37;23.25;;;9.90;;
8857;SDS011;4465;50.904;4.696;2022-09-01T04:11:09;22.30;;;9.75;;
8857;SDS011;4465;50.904;4.696;2022-09-01T04:13:40;22.20;;;9.68;;
8857;SDS011;4465;50.904;4.696;2022-09-01T04:16:16;23.38;;;9.35;;
8857;SDS011;4465;50.904;4.696;2022-09-01T04:19:11;22.33;;;10.05;;
8857;SDS011;4465;50.904;4.696;2022-09-01T04:21:50;22.48;;;9.73;;
8857;SDS011;4465;50.904;4.696;2022-09-01T04:24:22;22.73;;;9.32;;
8857;SDS011;4465;50.904;4.696;2022-09-01T04:26:52;22.10;;;10.32;;
8857;SDS011;4465;50.904;4.696;2022-09-01T04:29:21;22.17;;;9.73;;
8857;SDS011;4465;50.904;4.696;2022-09-01T04:31:57;22.48;;;10.02;;
8857;SDS011;4465;50.904;4.696;2022-09-01T04:37:11;24.65;;;10.18;;
8857;SDS011;4465;50.904;4.696;2022-09-01T04:42:12;21.73;;;9.25;;
8857;SDS011;4465;50.904;4.696;2022-09-01T04:44:38;27.45;;;10.98;;
8857;SDS011;4465;50.904;4.696;2022-09-01T04:47:04;20.00;;;9.68;;
8857;SDS011;4465;50.904;4.696;2022-09-01T04:49:35;19.88;;;9.38;;
8857;SDS011;4465;50.904;4.696;2022-09-01T04:52:01;22.20;;;9.77;;
8857;SDS011;4465;50.904;4.696;2022-09-01T04:54:28;20.92;;;9.60;;
8857;SDS011;4465;50.904;4.696;2022-09-01T04:56:59;24.70;;;9.35;;
8857;SDS011;4465;50.904;4.696;2022-09-01T04:59:25;18.50;;;9.18;;
8857;SDS011;4465;50.904;4.696;2022-09-01T05:01:53;24.35;;;9.23;;
8857;SDS011;4465;50.904;4.696;2022-09-01T05:06:50;22.13;;;8.00;;
8857;SDS011;4465;50.904;4.696;2022-09-01T05:09:21;20.38;;;9.23;;
8857;SDS011;4465;50.904;4.696;2022-09-01T05:11:49;19.25;;;8.93;;
8857;SDS011;4465;50.904;4.696;2022-09-01T05:14:15;19.23;;;9.52;;
8857;SDS011;4465;50.904;4.696;2022-09-01T05:16:45;19.05;;;8.95;;
8857;SDS011;4465;50.904;4.696;2022-09-01T05:19:12;22.97;;;9.73;;
8857;SDS011;4465;50.904;4.696;2022-09-01T05:21:42;22.57;;;9.10;;
8857;SDS011;4465;50.904;4.696;2022-09-01T05:24:11;23.02;;;9.30;;
8857;SDS011;4465;50.904;4.696;2022-09-01T05:26:40;17.70;;;8.90;;
8857;SDS011;4465;50.904;4.696;2022-09-01T05:29:08;21.92;;;9.15;;
8857;SDS011;4465;50.904;4.696;2022-09-01T05:31:40;19.48;;;8.93;;
8857;SDS011;4465;50.904;4.696;2022-09-01T05:34:08;23.10;;;9.32;;
8857;SDS011;4465;50.904;4.696;2022-09-01T05:36:36;20.23;;;8.80;;
8857;SDS011;4465;50.904;4.696;2022-09-01T05:39:05;16.80;;;7.53;;
8857;SDS011;4465;50.904;4.696;2022-09-01T05:41:34;18.83;;;8.20;;
8857;SDS011;4465;50.904;4.696;2022-09-01T05:44:01;15.07;;;7.15;;
8857;SDS011;4465;50.904;4.696;2022-09-01T05:46:32;18.30;;;7.53;;
8857;SDS011;4465;50.904;4.696;2022-09-01T05:49:00;15.43;;;7.00;;
8857;SDS011;4465;50.904;4.696;2022-09-01T05:51:27;17.95;;;7.20;;
8857;SDS011;4465;50.904;4.696;2022-09-01T05:53:58;20.33;;;7.22;;
8857;SDS011;4465;50.904;4.696;2022-09-01T05:56:25;11.65;;;5.72;;
8857;SDS011;4465;50.904;4.696;2022-09-01T05:58:52;16.58;;;6.05;;
8857;SDS011;4465;50.904;4.696;2022-09-01T06:01:21;13.52;;;6.32;;
8857;SDS011;4465;50.904;4.696;2022-09-01T06:03:52;15.13;;;6.38;;
8857;SDS011;4465;50.904;4.696;2022-09-01T06:06:21;14.32;;;5.68;;
8857;SDS011;4465;50.904;4.696;2022-09-01T06:08:50;14.00;;;5.68;;
8857;SDS011;4465;50.904;4.696;2022-09-01T06:11:17;16.10;;;6.40;;
8857;SDS011;4465;50.904;4.696;2022-09-01T06:13:46;12.23;;;5.80;;
8857;SDS011;4465;50.904;4.696;2022-09-01T06:16:15;15.48;;;5.25;;
8857;SDS011;4465;50.904;4.696;2022-09-01T06:18:44;16.60;;;5.78;;
8857;SDS011;4465;50.904;4.696;2022-09-01T06:21:10;12.63;;;4.85;;
8857;SDS011;4465;50.904;4.696;2022-09-01T06:23:41;11.13;;;5.53;;
8857;SDS011;4465;50.904;4.696;2022-09-01T06:29:06;14.35;;;5.85;;
8857;SDS011;4465;50.904;4.696;2022-09-01T06:31:34;15.35;;;4.68;;
8857;SDS011;4465;50.904;4.696;2022-09-01T06:34:06;17.90;;;5.10;;
8857;SDS011;4465;50.904;4.696;2022-09-01T06:36:37;9.00;;;5.07;;
8857;SDS011;4465;50.904;4.696;2022-09-01T06:39:05;12.32;;;4.20;;
8857;SDS011;4465;50.904;4.696;2022-09-01T06:41:33;13.80;;;4.85;;
8857;SDS011;4465;50.904;4.696;2022-09-01T06:44:03;9.98;;;4.72;;
8857;SDS011;4465;50.904;4.696;2022-09-01T06:46:29;12.10;;;5.07;;
8857;SDS011;4465;50.904;4.696;2022-09-01T06:48:56;12.10;;;4.70;;
8857;SDS011;4465;50.904;4.696;2022-09-01T06:51:23;7.75;;;4.53;;
8857;SDS011;4465;50.904;4.696;2022-09-01T06:53:53;9.75;;;4.43;;
8857;SDS011;4465;50.904;4.696;2022-09-01T06:56:24;9.02;;;4.68;;
8857;SDS011;4465;50.904;4.696;2022-09-01T06:58:54;9.00;;;4.38;;
8857;SDS011;4465;50.904;4.696;2022-09-01T07:01:20;11.55;;;4.30;;
8857;SDS011;4465;50.904;4.696;2022-09-01T07:03:53;10.77;;;4.32;;
8857;SDS011;4465;50.904;4.696;2022-09-01T07:06:21;11.02;;;4.45;;
8857;SDS011;4465;50.904;4.696;2022-09-01T07:08:52;16.35;;;4.32;;
8857;SDS011;4465;50.904;4.696;2022-09-01T07:11:24;11.20;;;4.70;;
8857;SDS011;4465;50.904;4.696;2022-09-01T07:13:59;14.75;;;4.32;;
8857;SDS011;4465;50.904;4.696;2022-09-01T07:16:27;13.63;;;4.30;;
8857;SDS011;4465;50.904;4.696;2022-09-01T07:18:56;12.65;;;3.92;;
8857;SDS011;4465;50.904;4.696;2022-09-01T07:21:27;11.65;;;4.30;;
8857;SDS011;4465;50.904;4.696;2022-09-01T07:23:57;5.25;;;3.40;;
8857;SDS011;4465;50.904;4.696;2022-09-01T07:26:26;13.95;;;4.18;;
8857;SDS011;4465;50.904;4.696;2022-09-01T07:28:54;9.02;;;3.90;;
8857;SDS011;4465;50.904;4.696;2022-09-01T07:33:50;8.60;;;3.53;;
8857;SDS011;4465;50.904;4.696;2022-09-01T07:36:19;6.35;;;3.47;;
8857;SDS011;4465;50.904;4.696;2022-09-01T07:38:48;11.35;;;3.60;;
8857;SDS011;4465;50.904;4.696;2022-09-01T07:41:22;6.35;;;3.67;;
8857;SDS011;4465;50.904;4.696;2022-09-01T07:43:50;6.07;;;3.70;;
8857;SDS011;4465;50.904;4.696;2022-09-01T07:46:17;8.82;;;4.22;;
8857;SDS011;4465;50.904;4.696;2022-09-01T07:48:45;7.57;;;3.30;;
8857;SDS011;4465;50.904;4.696;2022-09-01T07:51:13;9.55;;;3.25;;
8857;SDS011;4465;50.904;4.696;2022-09-01T07:53:45;6.50;;;3.00;;
8857;SDS011;4465;50.904;4.696;2022-09-01T07:56:16;6.78;;;3.10;;
8857;SDS011;4465;50.904;4.696;2022-09-01T07:58:45;4.68;;;3.28;;
8857;SDS011;4465;50.904;4.696;2022-09-01T08:01:14;6.78;;;3.17;;
8857;SDS011;4465;50.904;4.696;2022-09-01T08:03:46;5.88;;;2.80;;
8857;SDS011;4465;50.904;4.696;2022-09-01T08:06:17;7.63;;;2.90;;
8857;SDS011;4465;50.904;4.696;2022-09-01T08:08:46;7.28;;;3.38;;
8857;SDS011;4465;50.904;4.696;2022-09-01T08:11:16;8.23;;;2.95;;
8857;SDS011;4465;50.904;4.696;2022-09-01T08:13:44;11.85;;;3.10;;
8857;SDS011;4465;50.904;4.696;2022-09-01T08:18:39;5.45;;;2.58;;
8857;SDS011;4465;50.904;4.696;2022-09-01T08:21:09;5.88;;;2.80;;
8857;SDS011;4465;50.904;4.696;2022-09-01T08:23:36;7.00;;;2.50;;
8857;SDS011;4465;50.904;4.696;2022-09-01T08:26:05;5.10;;;2.97;;
8857;SDS011;4465;50.904;4.696;2022-09-01T08:28:37;12.27;;;3.13;;
8857;SDS011;4465;50.904;4.696;2022-09-01T08:31:08;4.30;;;2.38;;
8857;SDS011;4465;50.904;4.696;2022-09-01T08:33:36;7.47;;;2.72;;
8857;SDS011;4465;50.904;4.696;2022-09-01T08:38:32;5.63;;;2.60;;
8857;SDS011;4465;50.904;4.696;2022-09-01T08:40:59;4.32;;;2.50;;
8857;SDS011;4465;50.904;4.696;2022-09-01T08:46:25;7.10;;;2.28;;
8857;SDS011;4465;50.904;4.696;2022-09-01T08:49:00;6.50;;;2.50;;
8857;SDS011;4465;50.904;4.696;2022-09-01T08:51:45;4.43;;;2.50;;
8857;SDS011;4465;50.904;4.696;2022-09-01T08:57:24;4.82;;;2.60;;
8857;SDS011;4465;50.904;4.696;2022-09-01T08:59:56;6.05;;;2.50;;
8857;SDS011;4465;50.904;4.696;2022-09-01T09:02:44;5.80;;;2.35;;
8857;SDS011;4465;50.904;4.696;2022-09-01T09:08:16;8.10;;;2.38;;
8857;SDS011;4465;50.904;4.696;2022-09-01T09:10:57;5.57;;;2.22;;
8857;SDS011;4465;50.904;4.696;2022-09-01T09:16:16;12.90;;;3.10;;
8857;SDS011;4465;50.904;4.696;2022-09-01T09:22:00;4.10;;;2.22;;
8857;SDS011;4465;50.904;4.696;2022-09-01T09:24:31;10.25;;;2.50;;
8857;SDS011;4465;50.904;4.696;2022-09-01T09:27:26;6.00;;;2.10;;
8857;SDS011;4465;50.904;4.696;2022-09-01T09:29:58;3.80;;;1.73;;
8857;SDS011;4465;50.904;4.696;2022-09-01T09:35:19;5.55;;;2.00;;
8857;SDS011;4465;50.904;4.696;2022-09-01T09:38:20;4.30;;;1.85;;
8857;SDS011;4465;50.904;4.696;2022-09-01T09:44:05;6.07;;;1.90;;
8857;SDS011;4465;50.904;4.696;2022-09-01T09:46:49;2.63;;;1.70;;
8857;SDS011;4465;50.904;4.696;2022-09-01T09:54:34;4.43;;;1.80;;
8857;SDS011;4465;50.904;4.696;2022-09-01T09:57:04;2.97;;;1.75;;
8857;SDS011;4465;50.904;4.696;2022-09-01T09:59:47;5.28;;;1.80;;
8857;SDS011;4465;50.904;4.696;2022-09-01T10:04:59;2.28;;;1.73;;
8857;SDS011;4465;50.904;4.696;2022-09-01T10:07:46;5.68;;;2.10;;
8857;SDS011;4465;50.904;4.696;2022-09-01T10:12:57;3.33;;;1.80;;
8857;SDS011;4465;50.904;4.696;2022-09-01T10:17:53;4.75;;;1.52;;
8857;SDS011;4465;50.904;4.696;2022-09-01T10:20:24;5.85;;;1.73;;
8857;SDS011;4465;50.904;4.696;2022-09-01T10:22:51;5.13;;;1.73;;
8857;SDS011;4465;50.904;4.696;2022-09-01T10:25:24;2.95;;;1.55;;
8857;SDS011;4465;50.904;4.696;2022-09-01T10:27:58;4.60;;;1.80;;
8857;SDS011;4465;50.904;4.696;2022-09-01T10:30:32;6.88;;;1.55;;
8857;SDS011;4465;50.904;4.696;2022-09-01T10:33:03;3.90;;;1.65;;
8857;SDS011;4465;50.904;4.696;2022-09-01T10:35:32;2.47;;;1.38;;
8857;SDS011;4465;50.904;4.696;2022-09-01T10:38:05;8.95;;;1.65;;
8857;SDS011;4465;50.904;4.696;2022-09-01T10:46:06;4.75;;;1.70;;
8857;SDS011;4465;50.904;4.696;2022-09-01T10:48:34;3.67;;;2.00;;
8857;SDS011;4465;50.904;4.696;2022-09-01T10:53:49;2.22;;;1.30;;
8857;SDS011;4465;50.904;4.696;2022-09-01T10:59:25;6.00;;;1.70;;
8857;SDS011;4465;50.904;4.696;2022-09-01T11:06:59;4.65;;;1.60;;
8857;SDS011;4465;50.904;4.696;2022-09-01T11:09:39;3.30;;;1.70;;
8857;SDS011;4465;50.904;4.696;2022-09-01T11:14:47;5.90;;;1.70;;
8857;SDS011;4465;50.904;4.696;2022-09-01T11:17:17;5.70;;;1.77;;
8857;SDS011;4465;50.904;4.696;2022-09-01T11:19:55;7.05;;;1.67;;
8857;SDS011;4465;50.904;4.696;2022-09-01T11:22:37;5.07;;;1.73;;
8857;SDS011;4465;50.904;4.696;2022-09-01T11:30:19;3.08;;;1.55;;
8857;SDS011;4465;50.904;4.696;2022-09-01T11:35:49;6.88;;;1.45;;
8857;SDS011;4465;50.904;4.696;2022-09-01T11:38:28;3.22;;;1.58;;
8857;SDS011;4465;50.904;4.696;2022-09-01T11:40:58;5.35;;;1.70;;
8857;SDS011;4465;50.904;4.696;2022-09-01T11:43:25;3.08;;;1.35;;
8857;SDS011;4465;50.904;4.696;2022-09-01T11:48:33;6.32;;;1.80;;
8857;SDS011;4465;50.904;4.696;2022-09-01T11:50:59;6.78;;;1.90;;
8857;SDS011;4465;50.904;4.696;2022-09-01T11:53:27;5.55;;;1.73;;
8857;SDS011;4465;50.904;4.696;2022-09-01T11:55:56;5.97;;;1.70;;
8857;SDS011;4465;50.904;4.696;2022-09-01T11:58:40;3.45;;;1.50;;
8857;SDS011;4465;50.904;4.696;2022-09-01T12:01:17;2.00;;;1.48;;
8857;SDS011;4465;50.904;4.696;2022-09-01T12:03:44;1.73;;;1.40;;
8857;SDS011;4465;50.904;4.696;2022-09-01T12:06:12;2.72;;;1.73;;
8857;SDS011;4465;50.904;4.696;2022-09-01T12:08:57;6.13;;;1.52;;
8857;SDS011;4465;50.904;4.696;2022-09-01T12:11:30;3.83;;;1.90;;
8857;SDS011;4465;50.904;4.696;2022-09-01T12:16:26;2.85;;;1.70;;
8857;SDS011;4465;50.904;4.696;2022-09-01T12:18:55;4.63;;;2.05;;
8857;SDS011;4465;50.904;4.696;2022-09-01T12:21:27;7.22;;;2.03;;
8857;SDS011;4465;50.904;4.696;2022-09-01T12:24:15;5.82;;;1.58;;
8857;SDS011;4465;50.904;4.696;2022-09-01T12:26:44;3.83;;;2.13;;
8857;SDS011;4465;50.904;4.696;2022-09-01T12:29:12;5.57;;;1.42;;
8857;SDS011;4465;50.904;4.696;2022-09-01T12:31:42;3.08;;;1.70;;
8857;SDS011;4465;50.904;4.696;2022-09-01T12:34:27;2.40;;;1.70;;
8857;SDS011;4465;50.904;4.696;2022-09-01T12:37:09;6.13;;;1.60;;
8857;SDS011;4465;50.904;4.696;2022-09-01T12:39:50;2.53;;;1.83;;
8857;SDS011;4465;50.904;4.696;2022-09-01T12:44:52;8.25;;;1.70;;
8857;SDS011;4465;50.904;4.696;2022-09-01T12:49:59;8.32;;;2.25;;
8857;SDS011;4465;50.904;4.696;2022-09-01T12:52:31;2.72;;;1.80;;
8857;SDS011;4465;50.904;4.696;2022-09-01T12:57:35;6.07;;;1.77;;
8857;SDS011;4465;50.904;4.696;2022-09-01T13:02:42;4.30;;;1.80;;
8857;SDS011;4465;50.904;4.696;2022-09-01T13:07:52;2.35;;;1.75;;
8857;SDS011;4465;50.904;4.696;2022-09-01T13:10:20;5.20;;;1.65;;
8857;SDS011;4465;50.904;4.696;2022-09-01T13:12:49;4.10;;;1.60;;
8857;SDS011;4465;50.904;4.696;2022-09-01T13:15:16;3.47;;;1.90;;
8857;SDS011;4465;50.904;4.696;2022-09-01T13:17:42;2.83;;;1.70;;
8857;SDS011;4465;50.904;4.696;2022-09-01T13:20:09;1.85;;;1.33;;
8857;SDS011;4465;50.904;4.696;2022-09-01T13:22:38;4.28;;;1.65;;
8857;SDS011;4465;50.904;4.696;2022-09-01T13:25:07;4.20;;;1.60;;
8857;SDS011;4465;50.904;4.696;2022-09-01T13:27:35;3.65;;;1.70;;
8857;SDS011;4465;50.904;4.696;2022-09-01T13:30:03;3.63;;;1.50;;
8857;SDS011;4465;50.904;4.696;2022-09-01T13:32:36;2.63;;;1.70;;
8857;SDS011;4465;50.904;4.696;2022-09-01T13:35:03;3.78;;;1.45;;
8857;SDS011;4465;50.904;4.696;2022-09-01T13:37:32;4.38;;;1.50;;
8857;SDS011;4465;50.904;4.696;2022-09-01T13:39:58;1.70;;;1.35;;
8857;SDS011;4465;50.904;4.696;2022-09-01T13:42:24;3.42;;;1.60;;
8857;SDS011;4465;50.904;4.696;2022-09-01T13:44:52;4.60;;;1.67;;
8857;SDS011;4465;50.904;4.696;2022-09-01T13:47:21;8.73;;;1.58;;
8857;SDS011;4465;50.904;4.696;2022-09-01T13:49:49;4.65;;;1.50;;
8857;SDS011;4465;50.904;4.696;2022-09-01T13:52:15;2.30;;;1.40;;
8857;SDS011;4465;50.904;4.696;2022-09-01T13:54:43;2.13;;;1.40;;
8857;SDS011;4465;50.904;4.696;2022-09-01T13:57:10;2.78;;;1.48;;
8857;SDS011;4465;50.904;4.696;2022-09-01T13:59:36;3.85;;;1.58;;
8857;SDS011;4465;50.904;4.696;2022-09-01T14:02:03;4.13;;;1.30;;
8857;SDS011;4465;50.904;4.696;2022-09-01T14:04:30;2.97;;;1.33;;
8857;SDS011;4465;50.904;4.696;2022-09-01T14:06:55;4.57;;;1.60;;
8857;SDS011;4465;50.904;4.696;2022-09-01T14:09:24;4.95;;;1.60;;
8857;SDS011;4465;50.904;4.696;2022-09-01T14:11:53;2.10;;;1.40;;
8857;SDS011;4465;50.904;4.696;2022-09-01T14:14:20;4.07;;;1.63;;
8857;SDS011;4465;50.904;4.696;2022-09-01T14:16:48;5.38;;;1.50;;
8857;SDS011;4465;50.904;4.696;2022-09-01T14:19:15;2.13;;;1.25;;
8857;SDS011;4465;50.904;4.696;2022-09-01T14:21:42;3.05;;;1.50;;
8857;SDS011;4465;50.904;4.696;2022-09-01T14:24:08;3.13;;;1.73;;
8857;SDS011;4465;50.904;4.696;2022-09-01T14:26:34;3.50;;;1.50;;
8857;SDS011;4465;50.904;4.696;2022-09-01T14:29:03;8.65;;;1.58;;
8857;SDS011;4465;50.904;4.696;2022-09-01T14:31:29;8.75;;;1.40;;
8857;SDS011;4465;50.904;4.696;2022-09-01T14:33:56;3.90;;;1.60;;
8857;SDS011;4465;50.904;4.696;2022-09-01T14:36:24;2.72;;;1.40;;
8857;SDS011;4465;50.904;4.696;2022-09-01T14:38:51;2.45;;;1.58;;
8857;SDS011;4465;50.904;4.696;2022-09-01T14:43:46;4.53;;;1.53;;
8857;SDS011;4465;50.904;4.696;2022-09-01T14:46:14;2.75;;;1.45;;
8857;SDS011;4465;50.904;4.696;2022-09-01T14:48:41;3.05;;;1.35;;
8857;SDS011;4465;50.904;4.696;2022-09-01T14:51:07;1.77;;;1.30;;
8857;SDS011;4465;50.904;4.696;2022-09-01T14:53:36;4.80;;;1.55;;
8857;SDS011;4465;50.904;4.696;2022-09-01T14:56:04;4.32;;;1.60;;
8857;SDS011;4465;50.904;4.696;2022-09-01T14:58:32;2.85;;;1.30;;
8857;SDS011;4465;50.904;4.696;2022-09-01T15:00:58;5.72;;;1.58;;
8857;SDS011;4465;50.904;4.696;2022-09-01T15:03:25;3.30;;;1.30;;
8857;SDS011;4465;50.904;4.696;2022-09-01T15:05:52;2.20;;;1.33;;
8857;SDS011;4465;50.904;4.696;2022-09-01T15:08:18;3.72;;;1.33;;
8857;SDS011;4465;50.904;4.696;2022-09-01T15:13:12;3.47;;;1.15;;
8857;SDS011;4465;50.904;4.696;2022-09-01T15:15:39;3.05;;;1.35;;
8857;SDS011;4465;50.904;4.696;2022-09-01T15:18:08;3.25;;;1.30;;
8857;SDS011;4465;50.904;4.696;2022-09-01T15:20:38;3.95;;;1.05;;
8857;SDS011;4465;50.904;4.696;2022-09-01T15:23:16;3.78;;;1.48;;
8857;SDS011;4465;50.904;4.696;2022-09-01T15:25:44;1.65;;;1.20;;
8857;SDS011;4465;50.904;4.696;2022-09-01T15:28:11;1.88;;;1.25;;
8857;SDS011;4465;50.904;4.696;2022-09-01T15:30:40;2.65;;;1.20;;
8857;SDS011;4465;50.904;4.696;2022-09-01T15:33:11;5.03;;;1.52;;
8857;SDS011;4465;50.904;4.696;2022-09-01T15:35:37;2.93;;;1.33;;
8857;SDS011;4465;50.904;4.696;2022-09-01T15:38:04;2.50;;;1.20;;
8857;SDS011;4465;50.904;4.696;2022-09-01T15:43:04;2.60;;;1.38;;
8857;SDS011;4465;50.904;4.696;2022-09-01T15:45:32;6.55;;;1.50;;
8857;SDS011;4465;50.904;4.696;2022-09-01T15:48:01;3.08;;;1.40;;
8857;SDS011;4465;50.904;4.696;2022-09-01T15:50:28;3.58;;;1.65;;
8857;SDS011;4465;50.904;4.696;2022-09-01T15:52:55;2.25;;;1.40;;
8857;SDS011;4465;50.904;4.696;2022-09-01T15:55:27;4.38;;;1.50;;
8857;SDS011;4465;50.904;4.696;2022-09-01T15:57:57;2.72;;;1.30;;
8857;SDS011;4465;50.904;4.696;2022-09-01T16:00:24;3.17;;;1.40;;
8857;SDS011;4465;50.904;4.696;2022-09-01T16:02:51;3.50;;;1.65;;
8857;SDS011;4465;50.904;4.696;2022-09-01T16:05:18;6.65;;;1.27;;
8857;SDS011;4465;50.904;4.696;2022-09-01T16:07:47;2.97;;;1.33;;
8857;SDS011;4465;50.904;4.696;2022-09-01T16:10:15;1.58;;;1.10;;
8857;SDS011;4465;50.904;4.696;2022-09-01T16:12:43;5.13;;;1.30;;
8857;SDS011;4465;50.904;4.696;2022-09-01T16:15:13;6.38;;;1.40;;
8857;SDS011;4465;50.904;4.696;2022-09-01T16:20:18;5.18;;;1.10;;
8857;SDS011;4465;50.904;4.696;2022-09-01T16:22:57;3.28;;;1.33;;
8857;SDS011;4465;50.904;4.696;2022-09-01T16:25:39;4.75;;;1.40;;
8857;SDS011;4465;50.904;4.696;2022-09-01T16:28:11;1.83;;;1.23;;
8857;SDS011;4465;50.904;4.696;2022-09-01T16:30:56;7.80;;;1.73;;
8857;SDS011;4465;50.904;4.696;2022-09-01T16:33:27;2.55;;;1.15;;
8857;SDS011;4465;50.904;4.696;2022-09-01T16:36:04;2.78;;;1.25;;
8857;SDS011;4465;50.904;4.696;2022-09-01T16:38:46;4.82;;;1.60;;
8857;SDS011;4465;50.904;4.696;2022-09-01T16:41:37;5.15;;;1.60;;
8857;SDS011;4465;50.904;4.696;2022-09-01T16:49:43;4.72;;;1.50;;
8857;SDS011;4465;50.904;4.696;2022-09-01T16:52:39;3.33;;;1.30;;
8857;SDS011;4465;50.904;4.696;2022-09-01T16:55:31;3.60;;;1.42;;
8857;SDS011;4465;50.904;4.696;2022-09-01T16:58:07;4.20;;;1.52;;
8857;SDS011;4465;50.904;4.696;2022-09-01T17:00:46;2.47;;;1.20;;
8857;SDS011;4465;50.904;4.696;2022-09-01T17:03:16;3.53;;;1.33;;
8857;SDS011;4465;50.904;4.696;2022-09-01T17:05:52;2.72;;;1.60;;
8857;SDS011;4465;50.904;4.696;2022-09-01T17:08:29;3.97;;;1.30;;
8857;SDS011;4465;50.904;4.696;2022-09-01T17:13:38;4.07;;;1.30;;
8857;SDS011;4465;50.904;4.696;2022-09-01T17:16:13;1.70;;;1.33;;
8857;SDS011;4465;50.904;4.696;2022-09-01T17:18:42;3.30;;;1.50;;
8857;SDS011;4465;50.904;4.696;2022-09-01T17:21:17;2.47;;;1.30;;
8857;SDS011;4465;50.904;4.696;2022-09-01T17:23:53;2.67;;;1.50;;
8857;SDS011;4465;50.904;4.696;2022-09-01T17:26:27;6.10;;;1.63;;
8857;SDS011;4465;50.904;4.696;2022-09-01T17:28:55;6.00;;;1.33;;
8857;SDS011;4465;50.904;4.696;2022-09-01T17:31:46;3.95;;;1.30;;
8857;SDS011;4465;50.904;4.696;2022-09-01T17:37:54;2.80;;;1.50;;
8857;SDS011;4465;50.904;4.696;2022-09-01T17:52:46;4.00;;;1.60;;